sensor_id;sensor_type;location;lat;lon;timestamp;P1;durP1;ratioP1;P2;durP2;ratioP2
56363;SDS011;42261;52.094;4.326;2023-05-07T00:01:54;29.20;;;16.40;;
56363;SDS011;42261;52.094;4.326;2023-05-07T00:04:38;27.67;;;15.40;;
56363;SDS011;42261;52.094;4.326;2023-05-07T00:07:24;29.15;;;17.25;;
56363;SDS011;42261;52.094;4.326;2023-05-07T00:10:08;26.80;;;15.50;;
56363;SDS011;42261;52.094;4.326;2023-05-07T00:12:52;26.25;;;16.83;;
56363;SDS011;42261;52.094;4.326;2023-05-07T00:15:36;26.08;;;16.75;;
56363;SDS011;42261;52.094;4.326;2023-05-07T00:18:20;28.60;;;17.70;;
56363;SDS011;42261;52.094;4.326;2023-05-07T00:21:06;28.75;;;16.95;;
56363;SDS011;42261;52.094;4.326;2023-05-07T00:23:50;28.05;;;16.67;;
56363;SDS011;42261;52.094;4.326;2023-05-07T00:26:34;26.98;;;16.45;;
56363;SDS011;42261;52.094;4.326;2023-05-07T00:29:18;28.73;;;18.05;;
56363;SDS011;42261;52.094;4.326;2023-05-07T00:32:02;27.52;;;17.15;;
56363;SDS011;42261;52.094;4.326;2023-05-07T00:34:46;32.50;;;17.77;;
56363;SDS011;42261;52.094;4.326;2023-05-07T00:37:30;27.67;;;16.83;;
56363;SDS011;42261;52.094;4.326;2023-05-07T00:40:14;32.13;;;18.27;;
56363;SDS011;42261;52.094;4.326;2023-05-07T00:42:58;31.08;;;18.45;;
56363;SDS011;42261;52.094;4.326;2023-05-07T00:45:44;31.13;;;18.92;;
56363;SDS011;42261;52.094;4.326;2023-05-07T00:48:29;31.23;;;18.40;;
56363;SDS011;42261;52.094;4.326;2023-05-07T00:51:14;32.88;;;19.45;;
56363;SDS011;42261;52.094;4.326;2023-05-07T00:54:00;32.85;;;18.42;;
56363;SDS011;42261;52.094;4.326;2023-05-07T00:56:44;32.17;;;19.15;;
56363;SDS011;42261;52.094;4.326;2023-05-07T00:59:30;31.42;;;18.55;;
56363;SDS011;42261;52.094;4.326;2023-05-07T01:02:14;30.52;;;18.33;;
56363;SDS011;42261;52.094;4.326;2023-05-07T01:04:58;29.95;;;18.60;;
56363;SDS011;42261;52.094;4.326;2023-05-07T01:07:45;31.67;;;18.50;;
56363;SDS011;42261;52.094;4.326;2023-05-07T01:10:29;31.02;;;19.15;;
56363;SDS011;42261;52.094;4.326;2023-05-07T01:13:16;29.73;;;18.15;;
56363;SDS011;42261;52.094;4.326;2023-05-07T01:16:01;30.35;;;17.75;;
56363;SDS011;42261;52.094;4.326;2023-05-07T01:18:45;28.85;;;17.77;;
56363;SDS011;42261;52.094;4.326;2023-05-07T01:21:32;32.45;;;18.45;;
56363;SDS011;42261;52.094;4.326;2023-05-07T01:24:17;29.13;;;17.83;;
56363;SDS011;42261;52.094;4.326;2023-05-07T01:27:02;31.67;;;17.63;;
56363;SDS011;42261;52.094;4.326;2023-05-07T01:29:46;29.65;;;18.42;;
56363;SDS011;42261;52.094;4.326;2023-05-07T01:32:38;33.05;;;19.08;;
56363;SDS011;42261;52.094;4.326;2023-05-07T01:35:25;28.90;;;18.60;;
56363;SDS011;42261;52.094;4.326;2023-05-07T01:38:10;35.30;;;19.40;;
56363;SDS011;42261;52.094;4.326;2023-05-07T01:40:55;37.95;;;21.40;;
56363;SDS011;42261;52.094;4.326;2023-05-07T01:43:40;29.55;;;19.10;;
56363;SDS011;42261;52.094;4.326;2023-05-07T01:46:25;33.53;;;20.65;;
56363;SDS011;42261;52.094;4.326;2023-05-07T01:49:10;34.53;;;20.00;;
56363;SDS011;42261;52.094;4.326;2023-05-07T01:51:54;42.55;;;22.25;;
56363;SDS011;42261;52.094;4.326;2023-05-07T01:54:41;36.13;;;19.70;;
56363;SDS011;42261;52.094;4.326;2023-05-07T01:57:25;29.77;;;19.52;;
56363;SDS011;42261;52.094;4.326;2023-05-07T02:00:09;37.78;;;20.10;;
56363;SDS011;42261;52.094;4.326;2023-05-07T02:02:54;32.38;;;19.73;;
56363;SDS011;42261;52.094;4.326;2023-05-07T02:05:38;31.27;;;18.75;;
56363;SDS011;42261;52.094;4.326;2023-05-07T02:08:25;31.83;;;18.83;;
56363;SDS011;42261;52.094;4.326;2023-05-07T02:11:09;29.70;;;17.48;;
56363;SDS011;42261;52.094;4.326;2023-05-07T02:13:53;33.15;;;18.45;;
56363;SDS011;42261;52.094;4.326;2023-05-07T02:16:38;31.90;;;18.20;;
56363;SDS011;42261;52.094;4.326;2023-05-07T02:19:22;28.40;;;18.45;;
56363;SDS011;42261;52.094;4.326;2023-05-07T02:22:07;29.75;;;16.55;;
56363;SDS011;42261;52.094;4.326;2023-05-07T02:24:51;30.38;;;17.67;;
56363;SDS011;42261;52.094;4.326;2023-05-07T02:27:35;30.38;;;17.50;;
56363;SDS011;42261;52.094;4.326;2023-05-07T02:30:19;27.98;;;17.45;;
56363;SDS011;42261;52.094;4.326;2023-05-07T02:33:05;27.95;;;16.83;;
56363;SDS011;42261;52.094;4.326;2023-05-07T02:35:50;25.35;;;15.43;;
56363;SDS011;42261;52.094;4.326;2023-05-07T02:38:36;26.60;;;16.08;;
56363;SDS011;42261;52.094;4.326;2023-05-07T02:41:20;27.40;;;15.10;;
56363;SDS011;42261;52.094;4.326;2023-05-07T02:44:05;26.52;;;16.08;;
56363;SDS011;42261;52.094;4.326;2023-05-07T02:46:51;28.88;;;17.15;;
56363;SDS011;42261;52.094;4.326;2023-05-07T02:49:35;26.17;;;15.77;;
56363;SDS011;42261;52.094;4.326;2023-05-07T02:52:19;24.55;;;15.77;;
56363;SDS011;42261;52.094;4.326;2023-05-07T02:55:03;23.88;;;15.35;;
56363;SDS011;42261;52.094;4.326;2023-05-07T02:57:48;23.73;;;14.90;;
56363;SDS011;42261;52.094;4.326;2023-05-07T03:00:32;24.40;;;15.55;;
56363;SDS011;42261;52.094;4.326;2023-05-07T03:03:15;23.40;;;14.18;;
56363;SDS011;42261;52.094;4.326;2023-05-07T03:06:00;20.10;;;14.80;;
56363;SDS011;42261;52.094;4.326;2023-05-07T03:08:44;25.35;;;13.70;;
56363;SDS011;42261;52.094;4.326;2023-05-07T03:11:28;27.25;;;14.80;;
56363;SDS011;42261;52.094;4.326;2023-05-07T03:14:12;23.15;;;14.88;;
56363;SDS011;42261;52.094;4.326;2023-05-07T03:16:56;21.48;;;14.30;;
56363;SDS011;42261;52.094;4.326;2023-05-07T03:19:40;23.23;;;13.63;;
56363;SDS011;42261;52.094;4.326;2023-05-07T03:22:24;22.90;;;14.45;;
56363;SDS011;42261;52.094;4.326;2023-05-07T03:25:09;25.25;;;14.45;;
56363;SDS011;42261;52.094;4.326;2023-05-07T03:27:55;20.73;;;13.88;;
56363;SDS011;42261;52.094;4.326;2023-05-07T03:30:39;19.70;;;13.48;;
56363;SDS011;42261;52.094;4.326;2023-05-07T03:33:24;22.70;;;14.63;;
56363;SDS011;42261;52.094;4.326;2023-05-07T03:36:08;23.38;;;14.57;;
56363;SDS011;42261;52.094;4.326;2023-05-07T03:38:52;23.88;;;15.15;;
56363;SDS011;42261;52.094;4.326;2023-05-07T03:41:36;23.83;;;14.15;;
56363;SDS011;42261;52.094;4.326;2023-05-07T03:44:21;26.58;;;15.15;;
56363;SDS011;42261;52.094;4.326;2023-05-07T03:47:05;22.92;;;14.75;;
56363;SDS011;42261;52.094;4.326;2023-05-07T03:49:49;21.67;;;14.52;;
56363;SDS011;42261;52.094;4.326;2023-05-07T03:52:34;19.50;;;13.02;;
56363;SDS011;42261;52.094;4.326;2023-05-07T03:55:18;24.50;;;15.00;;
56363;SDS011;42261;52.094;4.326;2023-05-07T03:58:02;22.25;;;13.98;;
56363;SDS011;42261;52.094;4.326;2023-05-07T04:00:46;21.35;;;13.48;;
56363;SDS011;42261;52.094;4.326;2023-05-07T04:03:30;25.30;;;14.30;;
56363;SDS011;42261;52.094;4.326;2023-05-07T04:06:18;21.55;;;13.88;;
56363;SDS011;42261;52.094;4.326;2023-05-07T04:09:02;22.30;;;13.80;;
56363;SDS011;42261;52.094;4.326;2023-05-07T04:11:46;18.85;;;12.93;;
56363;SDS011;42261;52.094;4.326;2023-05-07T04:14:30;21.80;;;13.48;;
56363;SDS011;42261;52.094;4.326;2023-05-07T04:17:17;21.10;;;13.82;;
56363;SDS011;42261;52.094;4.326;2023-05-07T04:20:00;21.13;;;14.32;;
56363;SDS011;42261;52.094;4.326;2023-05-07T04:22:44;21.58;;;13.07;;
56363;SDS011;42261;52.094;4.326;2023-05-07T04:25:28;22.92;;;12.77;;
56363;SDS011;42261;52.094;4.326;2023-05-07T04:28:12;20.92;;;13.38;;
56363;SDS011;42261;52.094;4.326;2023-05-07T04:30:57;21.15;;;14.30;;
56363;SDS011;42261;52.094;4.326;2023-05-07T04:33:41;22.08;;;13.23;;
56363;SDS011;42261;52.094;4.326;2023-05-07T04:36:25;18.63;;;12.73;;
56363;SDS011;42261;52.094;4.326;2023-05-07T04:39:11;20.35;;;13.43;;
56363;SDS011;42261;52.094;4.326;2023-05-07T04:41:55;19.90;;;12.73;;
56363;SDS011;42261;52.094;4.326;2023-05-07T04:44:39;18.63;;;13.63;;
56363;SDS011;42261;52.094;4.326;2023-05-07T04:47:24;19.95;;;13.45;;
56363;SDS011;42261;52.094;4.326;2023-05-07T04:50:08;19.52;;;13.30;;
56363;SDS011;42261;52.094;4.326;2023-05-07T04:52:52;19.58;;;12.80;;
56363;SDS011;42261;52.094;4.326;2023-05-07T04:55:37;19.30;;;12.43;;
56363;SDS011;42261;52.094;4.326;2023-05-07T04:58:21;17.33;;;12.50;;
56363;SDS011;42261;52.094;4.326;2023-05-07T05:01:05;16.00;;;11.48;;
56363;SDS011;42261;52.094;4.326;2023-05-07T05:03:50;18.42;;;12.73;;
56363;SDS011;42261;52.094;4.326;2023-05-07T05:06:34;17.38;;;12.40;;
56363;SDS011;42261;52.094;4.326;2023-05-07T05:09:18;16.80;;;11.55;;
56363;SDS011;42261;52.094;4.326;2023-05-07T05:12:03;18.65;;;12.90;;
56363;SDS011;42261;52.094;4.326;2023-05-07T05:14:47;15.73;;;11.45;;
56363;SDS011;42261;52.094;4.326;2023-05-07T05:17:31;17.45;;;12.10;;
56363;SDS011;42261;52.094;4.326;2023-05-07T05:20:16;17.25;;;11.27;;
56363;SDS011;42261;52.094;4.326;2023-05-07T05:23:00;18.23;;;11.68;;
56363;SDS011;42261;52.094;4.326;2023-05-07T05:25:45;16.30;;;11.40;;
56363;SDS011;42261;52.094;4.326;2023-05-07T05:28:29;16.38;;;11.63;;
56363;SDS011;42261;52.094;4.326;2023-05-07T05:31:13;19.10;;;12.50;;
56363;SDS011;42261;52.094;4.326;2023-05-07T05:33:58;16.20;;;11.50;;
56363;SDS011;42261;52.094;4.326;2023-05-07T05:36:42;17.20;;;11.98;;
56363;SDS011;42261;52.094;4.326;2023-05-07T05:39:27;17.73;;;12.20;;
56363;SDS011;42261;52.094;4.326;2023-05-07T05:42:11;18.38;;;11.70;;
56363;SDS011;42261;52.094;4.326;2023-05-07T05:44:55;17.27;;;11.57;;
56363;SDS011;42261;52.094;4.326;2023-05-07T05:47:40;15.15;;;11.73;;
56363;SDS011;42261;52.094;4.326;2023-05-07T05:50:33;15.90;;;12.07;;
56363;SDS011;42261;52.094;4.326;2023-05-07T05:53:19;18.38;;;11.68;;
56363;SDS011;42261;52.094;4.326;2023-05-07T05:56:05;16.75;;;12.00;;
56363;SDS011;42261;52.094;4.326;2023-05-07T05:58:49;18.60;;;12.30;;
56363;SDS011;42261;52.094;4.326;2023-05-07T06:01:33;18.08;;;12.02;;
56363;SDS011;42261;52.094;4.326;2023-05-07T06:04:17;16.00;;;10.82;;
56363;SDS011;42261;52.094;4.326;2023-05-07T06:07:02;16.90;;;11.73;;
56363;SDS011;42261;52.094;4.326;2023-05-07T06:09:47;14.15;;;10.55;;
56363;SDS011;42261;52.094;4.326;2023-05-07T06:12:31;15.05;;;10.40;;
56363;SDS011;42261;52.094;4.326;2023-05-07T06:15:16;17.60;;;11.07;;
56363;SDS011;42261;52.094;4.326;2023-05-07T06:18:00;16.27;;;10.23;;
56363;SDS011;42261;52.094;4.326;2023-05-07T06:20:45;15.52;;;10.07;;
56363;SDS011;42261;52.094;4.326;2023-05-07T06:23:29;14.82;;;10.18;;
56363;SDS011;42261;52.094;4.326;2023-05-07T06:26:13;14.45;;;10.45;;
56363;SDS011;42261;52.094;4.326;2023-05-07T06:28:58;17.30;;;11.35;;
56363;SDS011;42261;52.094;4.326;2023-05-07T06:31:42;13.43;;;10.45;;
56363;SDS011;42261;52.094;4.326;2023-05-07T06:34:27;14.63;;;10.98;;
56363;SDS011;42261;52.094;4.326;2023-05-07T06:37:11;13.75;;;9.57;;
56363;SDS011;42261;52.094;4.326;2023-05-07T06:39:55;13.35;;;10.00;;
56363;SDS011;42261;52.094;4.326;2023-05-07T06:42:39;12.60;;;10.10;;
56363;SDS011;42261;52.094;4.326;2023-05-07T06:45:22;12.73;;;9.77;;
56363;SDS011;42261;52.094;4.326;2023-05-07T06:48:07;14.50;;;10.05;;
56363;SDS011;42261;52.094;4.326;2023-05-07T06:50:51;13.40;;;9.85;;
56363;SDS011;42261;52.094;4.326;2023-05-07T06:53:37;13.52;;;10.82;;
56363;SDS011;42261;52.094;4.326;2023-05-07T06:56:20;13.18;;;9.95;;
56363;SDS011;42261;52.094;4.326;2023-05-07T06:59:05;13.70;;;10.32;;
56363;SDS011;42261;52.094;4.326;2023-05-07T07:01:51;16.20;;;9.85;;
56363;SDS011;42261;52.094;4.326;2023-05-07T07:04:35;14.20;;;9.60;;
56363;SDS011;42261;52.094;4.326;2023-05-07T07:07:21;12.50;;;9.90;;
56363;SDS011;42261;52.094;4.326;2023-05-07T07:10:05;12.55;;;9.73;;
56363;SDS011;42261;52.094;4.326;2023-05-07T07:12:49;13.38;;;8.80;;
56363;SDS011;42261;52.094;4.326;2023-05-07T07:15:35;12.38;;;8.63;;
56363;SDS011;42261;52.094;4.326;2023-05-07T07:18:20;10.82;;;9.20;;
56363;SDS011;42261;52.094;4.326;2023-05-07T07:21:04;13.15;;;9.10;;
56363;SDS011;42261;52.094;4.326;2023-05-07T07:23:49;12.38;;;9.15;;
56363;SDS011;42261;52.094;4.326;2023-05-07T07:26:33;12.00;;;9.05;;
56363;SDS011;42261;52.094;4.326;2023-05-07T07:29:17;14.93;;;10.40;;
56363;SDS011;42261;52.094;4.326;2023-05-07T07:32:02;13.25;;;9.90;;
56363;SDS011;42261;52.094;4.326;2023-05-07T07:34:46;12.10;;;9.30;;
56363;SDS011;42261;52.094;4.326;2023-05-07T07:37:30;13.07;;;9.23;;
56363;SDS011;42261;52.094;4.326;2023-05-07T07:40:14;12.75;;;8.75;;
56363;SDS011;42261;52.094;4.326;2023-05-07T07:42:58;15.88;;;9.48;;
56363;SDS011;42261;52.094;4.326;2023-05-07T07:45:43;11.80;;;8.32;;
56363;SDS011;42261;52.094;4.326;2023-05-07T07:48:27;10.88;;;7.65;;
56363;SDS011;42261;52.094;4.326;2023-05-07T07:51:11;12.00;;;8.10;;
56363;SDS011;42261;52.094;4.326;2023-05-07T07:53:55;13.73;;;8.75;;
56363;SDS011;42261;52.094;4.326;2023-05-07T07:56:42;10.98;;;7.82;;
56363;SDS011;42261;52.094;4.326;2023-05-07T07:59:26;13.98;;;8.27;;
56363;SDS011;42261;52.094;4.326;2023-05-07T08:02:11;9.05;;;7.55;;
56363;SDS011;42261;52.094;4.326;2023-05-07T08:04:55;9.45;;;7.55;;
56363;SDS011;42261;52.094;4.326;2023-05-07T08:07:39;10.27;;;7.10;;
56363;SDS011;42261;52.094;4.326;2023-05-07T08:10:24;10.85;;;7.72;;
56363;SDS011;42261;52.094;4.326;2023-05-07T08:13:07;9.18;;;7.55;;
56363;SDS011;42261;52.094;4.326;2023-05-07T08:15:52;12.65;;;8.07;;
56363;SDS011;42261;52.094;4.326;2023-05-07T08:18:36;10.88;;;7.10;;
56363;SDS011;42261;52.094;4.326;2023-05-07T08:21:22;13.65;;;7.10;;
56363;SDS011;42261;52.094;4.326;2023-05-07T08:24:06;10.35;;;6.93;;
56363;SDS011;42261;52.094;4.326;2023-05-07T08:26:50;13.57;;;6.72;;
56363;SDS011;42261;52.094;4.326;2023-05-07T08:29:34;11.15;;;6.85;;
56363;SDS011;42261;52.094;4.326;2023-05-07T08:32:19;10.20;;;6.85;;
56363;SDS011;42261;52.094;4.326;2023-05-07T08:35:03;9.50;;;6.88;;
56363;SDS011;42261;52.094;4.326;2023-05-07T08:37:47;9.93;;;5.85;;
56363;SDS011;42261;52.094;4.326;2023-05-07T08:40:32;11.73;;;6.70;;
56363;SDS011;42261;52.094;4.326;2023-05-07T08:43:18;10.38;;;6.57;;
56363;SDS011;42261;52.094;4.326;2023-05-07T08:46:03;9.02;;;7.18;;
56363;SDS011;42261;52.094;4.326;2023-05-07T08:48:48;11.90;;;6.90;;
56363;SDS011;42261;52.094;4.326;2023-05-07T08:51:33;9.93;;;6.93;;
56363;SDS011;42261;52.094;4.326;2023-05-07T08:54:17;15.75;;;7.65;;
56363;SDS011;42261;52.094;4.326;2023-05-07T08:57:03;11.13;;;6.88;;
56363;SDS011;42261;52.094;4.326;2023-05-07T08:59:47;8.65;;;6.28;;
56363;SDS011;42261;52.094;4.326;2023-05-07T09:02:32;10.38;;;6.15;;
56363;SDS011;42261;52.094;4.326;2023-05-07T09:05:16;10.50;;;6.70;;
56363;SDS011;42261;52.094;4.326;2023-05-07T09:08:01;10.02;;;6.10;;
56363;SDS011;42261;52.094;4.326;2023-05-07T09:10:46;8.98;;;5.68;;
56363;SDS011;42261;52.094;4.326;2023-05-07T09:13:31;9.32;;;5.60;;
56363;SDS011;42261;52.094;4.326;2023-05-07T09:16:16;8.13;;;5.60;;
56363;SDS011;42261;52.094;4.326;2023-05-07T09:19:00;8.35;;;5.28;;
56363;SDS011;42261;52.094;4.326;2023-05-07T09:21:44;9.95;;;5.88;;
56363;SDS011;42261;52.094;4.326;2023-05-07T09:24:28;8.95;;;5.68;;
56363;SDS011;42261;52.094;4.326;2023-05-07T09:27:17;7.53;;;4.68;;
56363;SDS011;42261;52.094;4.326;2023-05-07T09:30:05;7.80;;;4.57;;
56363;SDS011;42261;52.094;4.326;2023-05-07T09:32:51;7.15;;;5.28;;
56363;SDS011;42261;52.094;4.326;2023-05-07T09:35:35;10.88;;;6.05;;
56363;SDS011;42261;52.094;4.326;2023-05-07T09:38:21;10.05;;;5.70;;
56363;SDS011;42261;52.094;4.326;2023-05-07T09:41:06;9.40;;;6.03;;
56363;SDS011;42261;52.094;4.326;2023-05-07T09:43:54;8.32;;;5.45;;
56363;SDS011;42261;52.094;4.326;2023-05-07T09:46:39;6.25;;;4.35;;
56363;SDS011;42261;52.094;4.326;2023-05-07T09:49:28;13.43;;;5.13;;
56363;SDS011;42261;52.094;4.326;2023-05-07T09:52:13;7.68;;;4.18;;
56363;SDS011;42261;52.094;4.326;2023-05-07T09:54:58;8.02;;;4.63;;
56363;SDS011;42261;52.094;4.326;2023-05-07T09:57:43;11.13;;;4.80;;
56363;SDS011;42261;52.094;4.326;2023-05-07T10:00:28;8.80;;;4.13;;
56363;SDS011;42261;52.094;4.326;2023-05-07T10:03:13;9.90;;;4.07;;
56363;SDS011;42261;52.094;4.326;2023-05-07T10:05:58;10.20;;;4.38;;
56363;SDS011;42261;52.094;4.326;2023-05-07T10:08:42;11.45;;;4.20;;
56363;SDS011;42261;52.094;4.326;2023-05-07T10:11:26;9.27;;;3.72;;
56363;SDS011;42261;52.094;4.326;2023-05-07T10:14:11;6.85;;;3.55;;
56363;SDS011;42261;52.094;4.326;2023-05-07T10:16:56;6.43;;;3.97;;
56363;SDS011;42261;52.094;4.326;2023-05-07T10:19:40;9.65;;;3.50;;
56363;SDS011;42261;52.094;4.326;2023-05-07T10:22:25;12.43;;;4.55;;
56363;SDS011;42261;52.094;4.326;2023-05-07T10:25:16;7.45;;;4.53;;
56363;SDS011;42261;52.094;4.326;2023-05-07T10:28:04;7.78;;;4.05;;
56363;SDS011;42261;52.094;4.326;2023-05-07T10:30:58;7.82;;;4.40;;
56363;SDS011;42261;52.094;4.326;2023-05-07T10:33:45;7.28;;;4.07;;
56363;SDS011;42261;52.094;4.326;2023-05-07T10:36:30;7.65;;;3.90;;
56363;SDS011;42261;52.094;4.326;2023-05-07T10:39:14;9.13;;;5.00;;
56363;SDS011;42261;52.094;4.326;2023-05-07T10:42:07;12.88;;;4.35;;
56363;SDS011;42261;52.094;4.326;2023-05-07T10:44:51;7.65;;;4.40;;
56363;SDS011;42261;52.094;4.326;2023-05-07T10:47:36;8.93;;;4.57;;
56363;SDS011;42261;52.094;4.326;2023-05-07T10:50:41;8.75;;;4.93;;
56363;SDS011;42261;52.094;4.326;2023-05-07T10:53:25;7.13;;;4.95;;
56363;SDS011;42261;52.094;4.326;2023-05-07T10:59:04;10.03;;;4.60;;
56363;SDS011;42261;52.094;4.326;2023-05-07T11:02:02;8.18;;;3.97;;
56363;SDS011;42261;52.094;4.326;2023-05-07T11:07:54;9.38;;;6.30;;
56363;SDS011;42261;52.094;4.326;2023-05-07T11:10:50;14.52;;;7.80;;
56363;SDS011;42261;52.094;4.326;2023-05-07T11:13:40;15.18;;;8.50;;
56363;SDS011;42261;52.094;4.326;2023-05-07T11:16:25;13.73;;;8.88;;
56363;SDS011;42261;52.094;4.326;2023-05-07T11:19:12;13.80;;;8.52;;
56363;SDS011;42261;52.094;4.326;2023-05-07T11:21:56;17.15;;;9.52;;
56363;SDS011;42261;52.094;4.326;2023-05-07T11:24:41;13.80;;;8.88;;
56363;SDS011;42261;52.094;4.326;2023-05-07T11:27:26;16.20;;;9.35;;
56363;SDS011;42261;52.094;4.326;2023-05-07T11:30:16;26.13;;;12.95;;
56363;SDS011;42261;52.094;4.326;2023-05-07T11:33:00;13.93;;;8.57;;
56363;SDS011;42261;52.094;4.326;2023-05-07T11:35:44;14.73;;;9.05;;
56363;SDS011;42261;52.094;4.326;2023-05-07T11:38:29;18.45;;;9.90;;
56363;SDS011;42261;52.094;4.326;2023-05-07T11:41:15;15.38;;;10.88;;
56363;SDS011;42261;52.094;4.326;2023-05-07T11:43:59;21.50;;;11.20;;
56363;SDS011;42261;52.094;4.326;2023-05-07T11:46:43;19.92;;;11.23;;
56363;SDS011;42261;52.094;4.326;2023-05-07T11:49:28;16.20;;;10.23;;
56363;SDS011;42261;52.094;4.326;2023-05-07T11:52:13;17.48;;;9.77;;
56363;SDS011;42261;52.094;4.326;2023-05-07T11:54:58;18.48;;;11.00;;
56363;SDS011;42261;52.094;4.326;2023-05-07T11:57:43;13.68;;;10.30;;
56363;SDS011;42261;52.094;4.326;2023-05-07T12:00:28;16.25;;;10.95;;
56363;SDS011;42261;52.094;4.326;2023-05-07T12:03:12;19.50;;;11.18;;
56363;SDS011;42261;52.094;4.326;2023-05-07T12:05:55;12.82;;;8.77;;
56363;SDS011;42261;52.094;4.326;2023-05-07T12:08:41;17.90;;;10.70;;
56363;SDS011;42261;52.094;4.326;2023-05-07T12:11:28;16.75;;;10.05;;
56363;SDS011;42261;52.094;4.326;2023-05-07T12:14:11;15.75;;;10.73;;
56363;SDS011;42261;52.094;4.326;2023-05-07T12:16:55;13.80;;;10.45;;
56363;SDS011;42261;52.094;4.326;2023-05-07T12:19:41;19.50;;;10.50;;
56363;SDS011;42261;52.094;4.326;2023-05-07T12:22:26;14.25;;;9.32;;
56363;SDS011;42261;52.094;4.326;2023-05-07T12:25:11;16.50;;;10.13;;
56363;SDS011;42261;52.094;4.326;2023-05-07T12:27:55;15.98;;;10.88;;
56363;SDS011;42261;52.094;4.326;2023-05-07T12:30:42;15.13;;;10.23;;
56363;SDS011;42261;52.094;4.326;2023-05-07T12:33:27;19.38;;;9.95;;
56363;SDS011;42261;52.094;4.326;2023-05-07T12:36:12;15.98;;;10.40;;
56363;SDS011;42261;52.094;4.326;2023-05-07T12:38:57;13.25;;;9.23;;
56363;SDS011;42261;52.094;4.326;2023-05-07T12:41:55;15.98;;;9.88;;
56363;SDS011;42261;52.094;4.326;2023-05-07T12:44:39;16.00;;;9.73;;
56363;SDS011;42261;52.094;4.326;2023-05-07T12:47:23;19.55;;;10.27;;
56363;SDS011;42261;52.094;4.326;2023-05-07T12:50:07;21.08;;;10.25;;
56363;SDS011;42261;52.094;4.326;2023-05-07T12:52:51;19.20;;;9.77;;
56363;SDS011;42261;52.094;4.326;2023-05-07T12:55:45;18.63;;;10.15;;
56363;SDS011;42261;52.094;4.326;2023-05-07T12:58:30;21.05;;;10.20;;
56363;SDS011;42261;52.094;4.326;2023-05-07T13:01:16;18.03;;;10.70;;
56363;SDS011;42261;52.094;4.326;2023-05-07T13:04:03;15.52;;;10.15;;
56363;SDS011;42261;52.094;4.326;2023-05-07T13:06:48;17.98;;;9.73;;
56363;SDS011;42261;52.094;4.326;2023-05-07T13:09:32;17.92;;;10.40;;
56363;SDS011;42261;52.094;4.326;2023-05-07T13:12:16;18.35;;;10.02;;
56363;SDS011;42261;52.094;4.326;2023-05-07T13:15:00;14.88;;;9.90;;
56363;SDS011;42261;52.094;4.326;2023-05-07T13:17:44;14.48;;;9.52;;
56363;SDS011;42261;52.094;4.326;2023-05-07T13:20:28;16.88;;;8.40;;
56363;SDS011;42261;52.094;4.326;2023-05-07T13:23:12;14.70;;;8.73;;
56363;SDS011;42261;52.094;4.326;2023-05-07T13:25:56;14.30;;;7.93;;
56363;SDS011;42261;52.094;4.326;2023-05-07T13:28:40;13.23;;;7.55;;
56363;SDS011;42261;52.094;4.326;2023-05-07T13:31:24;13.50;;;7.70;;
56363;SDS011;42261;52.094;4.326;2023-05-07T13:34:10;12.30;;;7.43;;
56363;SDS011;42261;52.094;4.326;2023-05-07T13:36:54;12.73;;;8.18;;
56363;SDS011;42261;52.094;4.326;2023-05-07T13:39:39;13.70;;;7.95;;
56363;SDS011;42261;52.094;4.326;2023-05-07T13:42:24;13.27;;;8.15;;
56363;SDS011;42261;52.094;4.326;2023-05-07T13:45:09;13.02;;;7.82;;
56363;SDS011;42261;52.094;4.326;2023-05-07T13:47:53;13.02;;;8.88;;
56363;SDS011;42261;52.094;4.326;2023-05-07T13:50:37;14.95;;;8.55;;
56363;SDS011;42261;52.094;4.326;2023-05-07T13:53:21;14.73;;;7.00;;
56363;SDS011;42261;52.094;4.326;2023-05-07T13:56:05;15.27;;;7.80;;
56363;SDS011;42261;52.094;4.326;2023-05-07T13:58:49;13.43;;;6.25;;
56363;SDS011;42261;52.094;4.326;2023-05-07T14:01:33;15.30;;;6.40;;
56363;SDS011;42261;52.094;4.326;2023-05-07T14:04:17;11.95;;;6.50;;
56363;SDS011;42261;52.094;4.326;2023-05-07T14:07:01;13.30;;;7.35;;
56363;SDS011;42261;52.094;4.326;2023-05-07T14:09:45;17.42;;;7.97;;
56363;SDS011;42261;52.094;4.326;2023-05-07T14:12:29;10.05;;;6.90;;
56363;SDS011;42261;52.094;4.326;2023-05-07T14:15:13;12.50;;;6.30;;
56363;SDS011;42261;52.094;4.326;2023-05-07T14:17:58;10.90;;;5.60;;
56363;SDS011;42261;52.094;4.326;2023-05-07T14:20:42;14.50;;;7.30;;
56363;SDS011;42261;52.094;4.326;2023-05-07T14:23:27;11.73;;;6.28;;
56363;SDS011;42261;52.094;4.326;2023-05-07T14:26:11;13.70;;;5.82;;
56363;SDS011;42261;52.094;4.326;2023-05-07T14:28:55;11.52;;;5.50;;
56363;SDS011;42261;52.094;4.326;2023-05-07T14:31:42;12.02;;;5.57;;
56363;SDS011;42261;52.094;4.326;2023-05-07T14:34:25;15.38;;;6.80;;
56363;SDS011;42261;52.094;4.326;2023-05-07T14:37:09;14.85;;;7.40;;
56363;SDS011;42261;52.094;4.326;2023-05-07T14:39:54;22.30;;;6.65;;
56363;SDS011;42261;52.094;4.326;2023-05-07T14:42:38;13.75;;;6.45;;
56363;SDS011;42261;52.094;4.326;2023-05-07T14:45:22;9.88;;;6.05;;
56363;SDS011;42261;52.094;4.326;2023-05-07T14:48:07;9.88;;;5.18;;
56363;SDS011;42261;52.094;4.326;2023-05-07T14:50:53;10.43;;;5.40;;
56363;SDS011;42261;52.094;4.326;2023-05-07T14:53:37;11.38;;;6.72;;
56363;SDS011;42261;52.094;4.326;2023-05-07T14:56:21;12.10;;;6.25;;
56363;SDS011;42261;52.094;4.326;2023-05-07T14:59:06;8.57;;;4.68;;
56363;SDS011;42261;52.094;4.326;2023-05-07T15:01:51;10.45;;;5.90;;
56363;SDS011;42261;52.094;4.326;2023-05-07T15:04:35;11.38;;;5.30;;
56363;SDS011;42261;52.094;4.326;2023-05-07T15:07:19;12.15;;;6.32;;
56363;SDS011;42261;52.094;4.326;2023-05-07T15:10:02;16.55;;;6.43;;
56363;SDS011;42261;52.094;4.326;2023-05-07T15:12:47;11.18;;;6.38;;
56363;SDS011;42261;52.094;4.326;2023-05-07T15:15:31;16.77;;;7.22;;
56363;SDS011;42261;52.094;4.326;2023-05-07T15:18:15;10.70;;;6.05;;
56363;SDS011;42261;52.094;4.326;2023-05-07T15:21:00;11.10;;;7.07;;
56363;SDS011;42261;52.094;4.326;2023-05-07T15:23:45;24.02;;;9.73;;
56363;SDS011;42261;52.094;4.326;2023-05-07T15:26:29;18.38;;;10.45;;
56363;SDS011;42261;52.094;4.326;2023-05-07T15:29:13;24.65;;;12.73;;
56363;SDS011;42261;52.094;4.326;2023-05-07T15:31:57;23.42;;;14.35;;
56363;SDS011;42261;52.094;4.326;2023-05-07T15:34:41;25.05;;;15.18;;
56363;SDS011;42261;52.094;4.326;2023-05-07T15:37:25;26.48;;;15.45;;
56363;SDS011;42261;52.094;4.326;2023-05-07T15:40:09;25.23;;;16.48;;
56363;SDS011;42261;52.094;4.326;2023-05-07T15:42:54;23.75;;;16.45;;
56363;SDS011;42261;52.094;4.326;2023-05-07T15:45:40;26.30;;;16.80;;
56363;SDS011;42261;52.094;4.326;2023-05-07T15:48:25;24.42;;;16.90;;
56363;SDS011;42261;52.094;4.326;2023-05-07T15:51:12;27.27;;;18.67;;
56363;SDS011;42261;52.094;4.326;2023-05-07T15:53:56;26.77;;;19.08;;
56363;SDS011;42261;52.094;4.326;2023-05-07T15:56:40;29.40;;;18.80;;
56363;SDS011;42261;52.094;4.326;2023-05-07T15:59:24;28.75;;;20.10;;
56363;SDS011;42261;52.094;4.326;2023-05-07T16:02:08;28.73;;;19.83;;
56363;SDS011;42261;52.094;4.326;2023-05-07T16:04:53;27.02;;;20.45;;
56363;SDS011;42261;52.094;4.326;2023-05-07T16:07:37;29.10;;;20.10;;
56363;SDS011;42261;52.094;4.326;2023-05-07T16:10:22;28.02;;;19.38;;
56363;SDS011;42261;52.094;4.326;2023-05-07T16:13:06;32.00;;;19.42;;
56363;SDS011;42261;52.094;4.326;2023-05-07T16:15:56;29.08;;;18.83;;
56363;SDS011;42261;52.094;4.326;2023-05-07T16:18:44;24.92;;;17.50;;